sensor_id;sensor_type;location;lat;lon;timestamp;temperature;humidity
13713;DHT22;6928;50.546;7.120;2023-03-01T00:00:10;-1.46;76.90
13713;DHT22;6928;50.546;7.120;2023-03-01T00:02:36;-1.36;76.22
13713;DHT22;6928;50.546;7.120;2023-03-01T00:05:04;-1.29;76.15
13713;DHT22;6928;50.546;7.120;2023-03-01T00:07:30;-1.80;78.33
13713;DHT22;6928;50.546;7.120;2023-03-01T00:09:57;-1.43;76.71
13713;DHT22;6928;50.546;7.120;2023-03-01T00:12:23;-1.43;76.27
13713;DHT22;6928;50.546;7.120;2023-03-01T00:14:51;-1.50;76.57
13713;DHT22;6928;50.546;7.120;2023-03-01T00:17:18;-1.46;76.17
13713;DHT22;6928;50.546;7.120;2023-03-01T00:19:44;-1.71;76.68
13713;DHT22;6928;50.546;7.120;2023-03-01T00:22:11;-1.78;77.42
13713;DHT22;6928;50.546;7.120;2023-03-01T00:24:37;-1.49;77.06
13713;DHT22;6928;50.546;7.120;2023-03-01T00:27:04;-1.76;77.10
13713;DHT22;6928;50.546;7.120;2023-03-01T00:29:31;-1.74;78.53
13713;DHT22;6928;50.546;7.120;2023-03-01T00:31:59;-1.64;77.28
13713;DHT22;6928;50.546;7.120;2023-03-01T00:34:25;-1.55;76.82
13713;DHT22;6928;50.546;7.120;2023-03-01T00:36:52;-1.60;76.72
13713;DHT22;6928;50.546;7.120;2023-03-01T00:39:18;-1.57;76.45
13713;DHT22;6928;50.546;7.120;2023-03-01T00:41:45;-1.68;76.93
13713;DHT22;6928;50.546;7.120;2023-03-01T00:44:11;-1.73;77.07
13713;DHT22;6928;50.546;7.120;2023-03-01T00:46:38;-1.78;77.08
13713;DHT22;6928;50.546;7.120;2023-03-01T00:49:06;-1.76;77.10
13713;DHT22;6928;50.546;7.120;2023-03-01T00:51:33;-1.78;77.01
13713;DHT22;6928;50.546;7.120;2023-03-01T00:54:19;-1.81;77.09
13713;DHT22;6928;50.546;7.120;2023-03-01T00:56:46;-1.78;77.14
13713;DHT22;6928;50.546;7.120;2023-03-01T00:59:12;-1.76;77.02
13713;DHT22;6928;50.546;7.120;2023-03-01T01:01:39;-1.91;77.85
13713;DHT22;6928;50.546;7.120;2023-03-01T01:04:09;-1.71;76.87
13713;DHT22;6928;50.546;7.120;2023-03-01T01:06:37;-2.19;78.21
13713;DHT22;6928;50.546;7.120;2023-03-01T01:09:05;-2.11;77.11
13713;DHT22;6928;50.546;7.120;2023-03-01T01:11:33;-1.74;76.16
13713;DHT22;6928;50.546;7.120;2023-03-01T01:14:00;-1.67;75.70
13713;DHT22;6928;50.546;7.120;2023-03-01T01:16:28;-1.74;75.83
13713;DHT22;6928;50.546;7.120;2023-03-01T01:18:56;-1.97;76.52
13713;DHT22;6928;50.546;7.120;2023-03-01T01:21:24;-2.02;77.27
13713;DHT22;6928;50.546;7.120;2023-03-01T01:23:51;-2.01;77.51
13713;DHT22;6928;50.546;7.120;2023-03-01T01:26:20;-1.97;77.12
13713;DHT22;6928;50.546;7.120;2023-03-01T01:28:48;-2.01;77.14
13713;DHT22;6928;50.546;7.120;2023-03-01T01:31:14;-2.05;77.18
13713;DHT22;6928;50.546;7.120;2023-03-01T01:33:41;-2.19;77.86
13713;DHT22;6928;50.546;7.120;2023-03-01T01:36:09;-2.04;77.58
13713;DHT22;6928;50.546;7.120;2023-03-01T01:38:37;-2.14;78.15
13713;DHT22;6928;50.546;7.120;2023-03-01T01:41:05;-1.88;77.43
13713;DHT22;6928;50.546;7.120;2023-03-01T01:43:34;-2.11;77.56
13713;DHT22;6928;50.546;7.120;2023-03-01T01:46:03;-2.17;78.22
13713;DHT22;6928;50.546;7.120;2023-03-01T01:48:36;-2.22;78.73
13713;DHT22;6928;50.546;7.120;2023-03-01T01:51:08;-2.29;78.27
13713;DHT22;6928;50.546;7.120;2023-03-01T01:53:38;-2.17;77.95
13713;DHT22;6928;50.546;7.120;2023-03-01T01:56:07;-2.12;77.67
13713;DHT22;6928;50.546;7.120;2023-03-01T01:58:35;-2.17;77.94
13713;DHT22;6928;50.546;7.120;2023-03-01T02:01:03;-2.18;77.70
13713;DHT22;6928;50.546;7.120;2023-03-01T02:03:32;-2.14;77.69
13713;DHT22;6928;50.546;7.120;2023-03-01T02:06:04;-2.19;77.72
13713;DHT22;6928;50.546;7.120;2023-03-01T02:08:33;-2.17;77.91
13713;DHT22;6928;50.546;7.120;2023-03-01T02:11:03;-2.11;77.70
13713;DHT22;6928;50.546;7.120;2023-03-01T02:13:30;-2.26;77.88
13713;DHT22;6928;50.546;7.120;2023-03-01T02:15:57;-2.38;78.57
13713;DHT22;6928;50.546;7.120;2023-03-01T02:18:25;-2.36;78.62
13713;DHT22;6928;50.546;7.120;2023-03-01T02:21:01;-2.18;77.95
13713;DHT22;6928;50.546;7.120;2023-03-01T02:23:29;-2.38;78.44
13713;DHT22;6928;50.546;7.120;2023-03-01T02:26:01;-2.31;78.56
13713;DHT22;6928;50.546;7.120;2023-03-01T02:28:35;-2.19;78.03
13713;DHT22;6928;50.546;7.120;2023-03-01T02:31:05;-2.23;77.76
13713;DHT22;6928;50.546;7.120;2023-03-01T02:33:49;-2.15;78.05
13713;DHT22;6928;50.546;7.120;2023-03-01T02:36:20;-2.09;77.36
13713;DHT22;6928;50.546;7.120;2023-03-01T02:38:50;-2.18;77.51
13713;DHT22;6928;50.546;7.120;2023-03-01T02:41:19;-2.15;77.53
13713;DHT22;6928;50.546;7.120;2023-03-01T02:43:47;-2.23;77.91
13713;DHT22;6928;50.546;7.120;2023-03-01T02:46:16;-2.39;78.62
13713;DHT22;6928;50.546;7.120;2023-03-01T02:48:44;-2.32;78.44
13713;DHT22;6928;50.546;7.120;2023-03-01T02:51:22;-2.39;78.12
13713;DHT22;6928;50.546;7.120;2023-03-01T02:53:56;-2.91;80.32
13713;DHT22;6928;50.546;7.120;2023-03-01T02:56:25;-2.66;80.03
13713;DHT22;6928;50.546;7.120;2023-03-01T02:58:53;-2.76;80.47
13713;DHT22;6928;50.546;7.120;2023-03-01T03:01:20;-2.53;79.87
13713;DHT22;6928;50.546;7.120;2023-03-01T03:03:47;-2.55;79.43
13713;DHT22;6928;50.546;7.120;2023-03-01T03:06:13;-2.73;79.94
13713;DHT22;6928;50.546;7.120;2023-03-01T03:08:40;-2.66;79.81
13713;DHT22;6928;50.546;7.120;2023-03-01T03:11:06;-2.55;79.60
13713;DHT22;6928;50.546;7.120;2023-03-01T03:13:33;-2.55;79.15
13713;DHT22;6928;50.546;7.120;2023-03-01T03:16:02;-2.55;78.91
13713;DHT22;6928;50.546;7.120;2023-03-01T03:18:29;-2.59;78.59
13713;DHT22;6928;50.546;7.120;2023-03-01T03:20:55;-2.53;78.33
13713;DHT22;6928;50.546;7.120;2023-03-01T03:23:22;-2.63;78.63
13713;DHT22;6928;50.546;7.120;2023-03-01T03:25:49;-2.44;77.71
13713;DHT22;6928;50.546;7.120;2023-03-01T03:28:16;-2.70;77.63
13713;DHT22;6928;50.546;7.120;2023-03-01T03:30:44;-2.48;77.70
13713;DHT22;6928;50.546;7.120;2023-03-01T03:33:13;-2.60;77.77
13713;DHT22;6928;50.546;7.120;2023-03-01T03:35:41;-2.63;77.81
13713;DHT22;6928;50.546;7.120;2023-03-01T03:38:10;-2.72;78.36
13713;DHT22;6928;50.546;7.120;2023-03-01T03:40:43;-2.81;78.83
13713;DHT22;6928;50.546;7.120;2023-03-01T03:43:12;-2.86;78.70
13713;DHT22;6928;50.546;7.120;2023-03-01T03:45:39;-2.88;78.91
13713;DHT22;6928;50.546;7.120;2023-03-01T03:48:07;-2.79;78.52
13713;DHT22;6928;50.546;7.120;2023-03-01T03:50:37;-3.14;79.43
13713;DHT22;6928;50.546;7.120;2023-03-01T03:53:06;-3.39;80.94
13713;DHT22;6928;50.546;7.120;2023-03-01T03:55:34;-3.03;79.47
13713;DHT22;6928;50.546;7.120;2023-03-01T03:58:01;-3.17;79.46
13713;DHT22;6928;50.546;7.120;2023-03-01T04:00:32;-3.17;79.45
13713;DHT22;6928;50.546;7.120;2023-03-01T04:02:59;-3.22;79.89
13713;DHT22;6928;50.546;7.120;2023-03-01T04:05:27;-3.14;80.27
13713;DHT22;6928;50.546;7.120;2023-03-01T04:07:55;-3.27;80.82
13713;DHT22;6928;50.546;7.120;2023-03-01T04:10:28;-3.27;81.21
13713;DHT22;6928;50.546;7.120;2023-03-01T04:12:55;-3.31;81.47
13713;DHT22;6928;50.546;7.120;2023-03-01T04:15:23;-3.19;81.01
13713;DHT22;6928;50.546;7.120;2023-03-01T04:17:51;-3.11;80.86
13713;DHT22;6928;50.546;7.120;2023-03-01T04:20:20;-3.11;80.49
13713;DHT22;6928;50.546;7.120;2023-03-01T04:22:51;-3.12;80.29
13713;DHT22;6928;50.546;7.120;2023-03-01T04:25:19;-3.22;80.74
13713;DHT22;6928;50.546;7.120;2023-03-01T04:27:45;-3.07;80.34
13713;DHT22;6928;50.546;7.120;2023-03-01T04:30:12;-3.22;80.33
13713;DHT22;6928;50.546;7.120;2023-03-01T04:32:39;-3.24;80.92
13713;DHT22;6928;50.546;7.120;2023-03-01T04:35:06;-3.25;80.93
13713;DHT22;6928;50.546;7.120;2023-03-01T04:37:33;-3.25;80.49
13713;DHT22;6928;50.546;7.120;2023-03-01T04:40:00;-3.24;80.86
13713;DHT22;6928;50.546;7.120;2023-03-01T04:42:31;-3.15;80.69
13713;DHT22;6928;50.546;7.120;2023-03-01T04:44:57;-3.31;80.92
13713;DHT22;6928;50.546;7.120;2023-03-01T04:47:24;-3.27;80.80
13713;DHT22;6928;50.546;7.120;2023-03-01T04:49:50;-3.21;80.85
13713;DHT22;6928;50.546;7.120;2023-03-01T04:52:17;-3.32;81.10
13713;DHT22;6928;50.546;7.120;2023-03-01T04:54:44;-3.15;80.63
13713;DHT22;6928;50.546;7.120;2023-03-01T04:57:10;-3.07;79.70
13713;DHT22;6928;50.546;7.120;2023-03-01T04:59:38;-3.01;79.47
13713;DHT22;6928;50.546;7.120;2023-03-01T05:02:05;-3.12;79.51
13713;DHT22;6928;50.546;7.120;2023-03-01T05:04:31;-3.19;80.04
13713;DHT22;6928;50.546;7.120;2023-03-01T05:06:58;-3.40;80.43
13713;DHT22;6928;50.546;7.120;2023-03-01T05:09:24;-3.36;80.85
13713;DHT22;6928;50.546;7.120;2023-03-01T05:11:51;-3.34;80.45
13713;DHT22;6928;50.546;7.120;2023-03-01T05:14:18;-3.36;80.86
13713;DHT22;6928;50.546;7.120;2023-03-01T05:16:46;-3.52;81.09
13713;DHT22;6928;50.546;7.120;2023-03-01T05:19:12;-3.42;80.95
13713;DHT22;6928;50.546;7.120;2023-03-01T05:21:41;-3.50;81.32
13713;DHT22;6928;50.546;7.120;2023-03-01T05:24:21;-3.46;81.48
13713;DHT22;6928;50.546;7.120;2023-03-01T05:26:48;-3.50;81.65
13713;DHT22;6928;50.546;7.120;2023-03-01T05:29:17;-3.64;82.26
13713;DHT22;6928;50.546;7.120;2023-03-01T05:31:45;-3.50;82.64
13713;DHT22;6928;50.546;7.120;2023-03-01T05:34:12;-3.57;81.92
13713;DHT22;6928;50.546;7.120;2023-03-01T05:36:38;-3.49;82.43
13713;DHT22;6928;50.546;7.120;2023-03-01T05:39:05;-3.67;82.01
13713;DHT22;6928;50.546;7.120;2023-03-01T05:41:31;-3.63;82.35
13713;DHT22;6928;50.546;7.120;2023-03-01T05:43:58;-3.73;82.41
13713;DHT22;6928;50.546;7.120;2023-03-01T05:46:24;-3.73;82.64
13713;DHT22;6928;50.546;7.120;2023-03-01T05:48:52;-3.64;82.29
13713;DHT22;6928;50.546;7.120;2023-03-01T05:51:19;-3.83;82.47
13713;DHT22;6928;50.546;7.120;2023-03-01T05:53:46;-3.80;82.58
13713;DHT22;6928;50.546;7.120;2023-03-01T05:56:13;-3.80;82.66
13713;DHT22;6928;50.546;7.120;2023-03-01T05:58:39;-3.79;82.60
13713;DHT22;6928;50.546;7.120;2023-03-01T06:01:11;-3.85;82.59
13713;DHT22;6928;50.546;7.120;2023-03-01T06:03:37;-3.77;82.29
13713;DHT22;6928;50.546;7.120;2023-03-01T06:06:05;-3.75;82.12
13713;DHT22;6928;50.546;7.120;2023-03-01T06:08:32;-3.75;81.85
13713;DHT22;6928;50.546;7.120;2023-03-01T06:10:58;-3.72;82.30
13713;DHT22;6928;50.546;7.120;2023-03-01T06:13:25;-3.77;82.45
13713;DHT22;6928;50.546;7.120;2023-03-01T06:15:51;-3.77;82.85
13713;DHT22;6928;50.546;7.120;2023-03-01T06:18:18;-3.79;82.71
13713;DHT22;6928;50.546;7.120;2023-03-01T06:20:45;-3.77;82.73
13713;DHT22;6928;50.546;7.120;2023-03-01T06:23:13;-3.89;83.09
13713;DHT22;6928;50.546;7.120;2023-03-01T06:25:39;-3.82;82.83
13713;DHT22;6928;50.546;7.120;2023-03-01T06:28:06;-3.83;82.79
13713;DHT22;6928;50.546;7.120;2023-03-01T06:30:32;-3.77;82.91
13713;DHT22;6928;50.546;7.120;2023-03-01T06:32:59;-3.67;82.53
13713;DHT22;6928;50.546;7.120;2023-03-01T06:35:27;-3.82;82.31
13713;DHT22;6928;50.546;7.120;2023-03-01T06:37:55;-3.83;82.55
13713;DHT22;6928;50.546;7.120;2023-03-01T06:40:23;-3.86;82.85
13713;DHT22;6928;50.546;7.120;2023-03-01T06:42:50;-3.80;82.75
13713;DHT22;6928;50.546;7.120;2023-03-01T06:45:18;-3.87;83.14
13713;DHT22;6928;50.546;7.120;2023-03-01T06:47:45;-3.82;83.27
13713;DHT22;6928;50.546;7.120;2023-03-01T06:50:13;-3.82;83.11
13713;DHT22;6928;50.546;7.120;2023-03-01T06:52:40;-3.66;82.73
13713;DHT22;6928;50.546;7.120;2023-03-01T06:55:07;-3.62;82.28
13713;DHT22;6928;50.546;7.120;2023-03-01T06:57:35;-3.67;82.45
13713;DHT22;6928;50.546;7.120;2023-03-01T07:00:02;-3.60;82.31
13713;DHT22;6928;50.546;7.120;2023-03-01T07:02:29;-3.50;82.13
13713;DHT22;6928;50.546;7.120;2023-03-01T07:04:56;-3.42;81.80
13713;DHT22;6928;50.546;7.120;2023-03-01T07:07:22;-3.50;81.43
13713;DHT22;6928;50.546;7.120;2023-03-01T07:09:49;-3.56;82.21
13713;DHT22;6928;50.546;7.120;2023-03-01T07:12:16;-3.38;82.00
13713;DHT22;6928;50.546;7.120;2023-03-01T07:14:44;-3.28;82.03
13713;DHT22;6928;50.546;7.120;2023-03-01T07:17:11;-3.08;81.85
13713;DHT22;6928;50.546;7.120;2023-03-01T07:19:38;-3.15;81.10
13713;DHT22;6928;50.546;7.120;2023-03-01T07:22:05;-3.21;81.52
13713;DHT22;6928;50.546;7.120;2023-03-01T07:24:33;-3.05;81.38
13713;DHT22;6928;50.546;7.120;2023-03-01T07:26:59;-3.08;81.06
13713;DHT22;6928;50.546;7.120;2023-03-01T07:29:26;-3.14;81.75
13713;DHT22;6928;50.546;7.120;2023-03-01T07:31:55;-3.01;81.46
13713;DHT22;6928;50.546;7.120;2023-03-01T07:34:21;-2.98;80.90
13713;DHT22;6928;50.546;7.120;2023-03-01T07:36:48;-3.01;81.05
13713;DHT22;6928;50.546;7.120;2023-03-01T07:39:14;-3.08;80.89
13713;DHT22;6928;50.546;7.120;2023-03-01T07:41:41;-3.11;81.05
13713;DHT22;6928;50.546;7.120;2023-03-01T07:44:07;-3.21;82.14
13713;DHT22;6928;50.546;7.120;2023-03-01T07:46:34;-3.15;81.70
13713;DHT22;6928;50.546;7.120;2023-03-01T07:49:02;-3.11;81.58
13713;DHT22;6928;50.546;7.120;2023-03-01T07:51:29;-2.93;81.07
13713;DHT22;6928;50.546;7.120;2023-03-01T07:53:56;-3.03;81.49
13713;DHT22;6928;50.546;7.120;2023-03-01T07:56:23;-3.09;81.64
13713;DHT22;6928;50.546;7.120;2023-03-01T07:58:49;-2.90;81.36
13713;DHT22;6928;50.546;7.120;2023-03-01T08:01:18;-2.77;80.90
13713;DHT22;6928;50.546;7.120;2023-03-01T08:03:44;-2.75;80.85
13713;DHT22;6928;50.546;7.120;2023-03-01T08:06:15;-2.72;80.82
13713;DHT22;6928;50.546;7.120;2023-03-01T08:08:42;-2.65;80.80
13713;DHT22;6928;50.546;7.120;2023-03-01T08:11:11;-2.56;80.48
13713;DHT22;6928;50.546;7.120;2023-03-01T08:13:38;-2.49;80.98
13713;DHT22;6928;50.546;7.120;2023-03-01T08:16:06;-2.49;80.26
13713;DHT22;6928;50.546;7.120;2023-03-01T08:18:33;-2.29;80.21
13713;DHT22;6928;50.546;7.120;2023-03-01T08:21:03;-2.14;80.66
13713;DHT22;6928;50.546;7.120;2023-03-01T08:23:32;-1.94;79.50
13713;DHT22;6928;50.546;7.120;2023-03-01T08:26:06;-1.99;79.35
13713;DHT22;6928;50.546;7.120;2023-03-01T08:28:33;-1.91;79.65
13713;DHT22;6928;50.546;7.120;2023-03-01T08:31:00;-1.53;79.31
13713;DHT22;6928;50.546;7.120;2023-03-01T08:33:27;-1.52;78.99
13713;DHT22;6928;50.546;7.120;2023-03-01T08:36:02;-1.42;78.85
13713;DHT22;6928;50.546;7.120;2023-03-01T08:38:28;-1.50;78.56
13713;DHT22;6928;50.546;7.120;2023-03-01T08:40:59;-1.31;78.31
13713;DHT22;6928;50.546;7.120;2023-03-01T08:43:25;-1.24;78.26
13713;DHT22;6928;50.546;7.120;2023-03-01T08:45:52;-1.04;78.36
13713;DHT22;6928;50.546;7.120;2023-03-01T08:48:18;-0.83;77.60
13713;DHT22;6928;50.546;7.120;2023-03-01T08:50:45;-0.81;77.56
13713;DHT22;6928;50.546;7.120;2023-03-01T08:53:12;-0.70;77.33
13713;DHT22;6928;50.546;7.120;2023-03-01T08:55:38;-0.46;76.67
13713;DHT22;6928;50.546;7.120;2023-03-01T08:58:06;-0.40;76.45
13713;DHT22;6928;50.546;7.120;2023-03-01T09:00:32;-0.45;75.51
13713;DHT22;6928;50.546;7.120;2023-03-01T09:02:59;-0.37;74.92
13713;DHT22;6928;50.546;7.120;2023-03-01T09:05:26;-0.02;75.15
13713;DHT22;6928;50.546;7.120;2023-03-01T09:07:53;0.11;74.76
13713;DHT22;6928;50.546;7.120;2023-03-01T09:10:19;-0.05;75.02
13713;DHT22;6928;50.546;7.120;2023-03-01T09:12:46;0.01;74.67
13713;DHT22;6928;50.546;7.120;2023-03-01T09:15:14;0.28;73.66
13713;DHT22;6928;50.546;7.120;2023-03-01T09:17:40;0.50;72.84
13713;DHT22;6928;50.546;7.120;2023-03-01T09:20:08;0.61;73.08
13713;DHT22;6928;50.546;7.120;2023-03-01T09:22:35;0.63;72.07
13713;DHT22;6928;50.546;7.120;2023-03-01T09:25:01;0.89;72.28
13713;DHT22;6928;50.546;7.120;2023-03-01T09:27:28;0.81;71.87
13713;DHT22;6928;50.546;7.120;2023-03-01T09:29:55;1.05;71.69
13713;DHT22;6928;50.546;7.120;2023-03-01T09:32:23;1.62;70.13
13713;DHT22;6928;50.546;7.120;2023-03-01T09:34:50;1.01;70.15
13713;DHT22;6928;50.546;7.120;2023-03-01T09:37:31;1.09;70.00
13713;DHT22;6928;50.546;7.120;2023-03-01T09:39:58;0.74;71.65
13713;DHT22;6928;50.546;7.120;2023-03-01T09:42:25;1.68;70.29
13713;DHT22;6928;50.546;7.120;2023-03-01T09:44:54;1.54;68.99
13713;DHT22;6928;50.546;7.120;2023-03-01T09:47:26;1.83;68.41
13713;DHT22;6928;50.546;7.120;2023-03-01T09:50:00;1.40;69.50
13713;DHT22;6928;50.546;7.120;2023-03-01T09:52:33;1.98;69.34
13713;DHT22;6928;50.546;7.120;2023-03-01T09:55:01;2.67;66.03
13713;DHT22;6928;50.546;7.120;2023-03-01T09:57:36;2.62;66.72
13713;DHT22;6928;50.546;7.120;2023-03-01T10:00:16;2.26;66.12
13713;DHT22;6928;50.546;7.120;2023-03-01T10:02:51;2.80;66.01
13713;DHT22;6928;50.546;7.120;2023-03-01T10:05:34;2.70;66.09
13713;DHT22;6928;50.546;7.120;2023-03-01T10:08:29;2.57;65.21
13713;DHT22;6928;50.546;7.120;2023-03-01T10:10:59;2.49;65.61
13713;DHT22;6928;50.546;7.120;2023-03-01T10:13:29;3.01;65.47
13713;DHT22;6928;50.546;7.120;2023-03-01T10:16:01;2.94;64.47
13713;DHT22;6928;50.546;7.120;2023-03-01T10:18:32;2.33;66.50
13713;DHT22;6928;50.546;7.120;2023-03-01T10:21:05;2.54;66.12
13713;DHT22;6928;50.546;7.120;2023-03-01T10:23:36;3.12;65.42
13713;DHT22;6928;50.546;7.120;2023-03-01T10:26:12;2.95;65.45
13713;DHT22;6928;50.546;7.120;2023-03-01T10:28:49;2.85;65.93
13713;DHT22;6928;50.546;7.120;2023-03-01T10:31:20;3.15;64.65
13713;DHT22;6928;50.546;7.120;2023-03-01T10:33:53;3.35;63.89
13713;DHT22;6928;50.546;7.120;2023-03-01T10:36:20;3.42;65.15
13713;DHT22;6928;50.546;7.120;2023-03-01T10:38:49;4.26;62.33
13713;DHT22;6928;50.546;7.120;2023-03-01T10:41:18;4.35;62.31
13713;DHT22;6928;50.546;7.120;2023-03-01T10:43:47;3.97;62.38
13713;DHT22;6928;50.546;7.120;2023-03-01T10:46:25;4.59;61.57
13713;DHT22;6928;50.546;7.120;2023-03-01T10:49:12;4.63;61.43
13713;DHT22;6928;50.546;7.120;2023-03-01T10:51:40;4.77;60.16
13713;DHT22;6928;50.546;7.120;2023-03-01T10:54:16;4.90;59.62
13713;DHT22;6928;50.546;7.120;2023-03-01T10:56:47;4.62;59.49
13713;DHT22;6928;50.546;7.120;2023-03-01T10:59:22;4.17;61.64
13713;DHT22;6928;50.546;7.120;2023-03-01T11:02:03;4.87;59.79
13713;DHT22;6928;50.546;7.120;2023-03-01T11:04:32;5.10;59.47
13713;DHT22;6928;50.546;7.120;2023-03-01T11:07:00;4.69;59.48
13713;DHT22;6928;50.546;7.120;2023-03-01T11:09:30;5.32;58.32
13713;DHT22;6928;50.546;7.120;2023-03-01T11:12:04;5.21;59.21
13713;DHT22;6928;50.546;7.120;2023-03-01T11:14:35;5.08;59.07
13713;DHT22;6928;50.546;7.120;2023-03-01T11:17:04;4.59;60.01
13713;DHT22;6928;50.546;7.120;2023-03-01T11:19:32;4.66;59.32
13713;DHT22;6928;50.546;7.120;2023-03-01T11:22:03;4.25;60.74
13713;DHT22;6928;50.546;7.120;2023-03-01T11:24:36;4.44;60.51
13713;DHT22;6928;50.546;7.120;2023-03-01T11:27:11;4.42;60.60
13713;DHT22;6928;50.546;7.120;2023-03-01T11:29:43;5.24;59.51
13713;DHT22;6928;50.546;7.120;2023-03-01T11:32:13;5.66;58.94
13713;DHT22;6928;50.546;7.120;2023-03-01T11:34:47;6.18;55.83
13713;DHT22;6928;50.546;7.120;2023-03-01T11:37:21;5.96;56.62
13713;DHT22;6928;50.546;7.120;2023-03-01T11:39:54;5.91;56.43
13713;DHT22;6928;50.546;7.120;2023-03-01T11:42:29;5.46;56.52
13713;DHT22;6928;50.546;7.120;2023-03-01T11:45:02;5.82;57.12
13713;DHT22;6928;50.546;7.120;2023-03-01T11:47:41;5.48;56.54
13713;DHT22;6928;50.546;7.120;2023-03-01T11:50:26;5.78;57.50
13713;DHT22;6928;50.546;7.120;2023-03-01T11:53:01;5.75;57.01
13713;DHT22;6928;50.546;7.120;2023-03-01T11:55:40;5.94;57.56
13713;DHT22;6928;50.546;7.120;2023-03-01T11:58:27;6.73;54.80
13713;DHT22;6928;50.546;7.120;2023-03-01T12:01:20;6.62;54.05
13713;DHT22;6928;50.546;7.120;2023-03-01T12:04:00;6.22;56.04
13713;DHT22;6928;50.546;7.120;2023-03-01T12:06:47;6.28;56.33
13713;DHT22;6928;50.546;7.120;2023-03-01T12:09:31;5.85;55.31
13713;DHT22;6928;50.546;7.120;2023-03-01T12:12:17;6.80;53.46
13713;DHT22;6928;50.546;7.120;2023-03-01T12:14:55;6.97;53.57
13713;DHT22;6928;50.546;7.120;2023-03-01T12:17:39;6.53;52.58
13713;DHT22;6928;50.546;7.120;2023-03-01T12:20:23;5.86;54.55
13713;DHT22;6928;50.546;7.120;2023-03-01T12:23:03;6.25;54.77
13713;DHT22;6928;50.546;7.120;2023-03-01T12:25:38;6.07;53.94
13713;DHT22;6928;50.546;7.120;2023-03-01T12:28:19;7.48;52.74
13713;DHT22;6928;50.546;7.120;2023-03-01T12:31:08;6.56;52.14
13713;DHT22;6928;50.546;7.120;2023-03-01T12:33:47;6.62;52.94
13713;DHT22;6928;50.546;7.120;2023-03-01T12:36:41;6.46;53.62
13713;DHT22;6928;50.546;7.120;2023-03-01T12:39:22;6.45;53.63
13713;DHT22;6928;50.546;7.120;2023-03-01T12:41:55;7.42;53.34
13713;DHT22;6928;50.546;7.120;2023-03-01T12:44:33;6.72;52.17
13713;DHT22;6928;50.546;7.120;2023-03-01T12:47:17;7.32;49.67
13713;DHT22;6928;50.546;7.120;2023-03-01T12:49:49;6.89;52.37
13713;DHT22;6928;50.546;7.120;2023-03-01T12:52:22;7.03;53.02
13713;DHT22;6928;50.546;7.120;2023-03-01T12:54:53;6.93;52.91
13713;DHT22;6928;50.546;7.120;2023-03-01T12:57:26;8.19;50.13
13713;DHT22;6928;50.546;7.120;2023-03-01T13:00:10;7.19;52.02
13713;DHT22;6928;50.546;7.120;2023-03-01T13:02:45;7.13;51.29
13713;DHT22;6928;50.546;7.120;2023-03-01T13:05:23;7.00;51.45
13713;DHT22;6928;50.546;7.120;2023-03-01T13:07:55;7.20;50.77
13713;DHT22;6928;50.546;7.120;2023-03-01T13:10:31;7.06;52.22
13713;DHT22;6928;50.546;7.120;2023-03-01T13:13:13;7.30;52.10
13713;DHT22;6928;50.546;7.120;2023-03-01T13:15:40;7.35;51.85
13713;DHT22;6928;50.546;7.120;2023-03-01T13:18:31;7.19;52.03
13713;DHT22;6928;50.546;7.120;2023-03-01T13:20:59;7.86;50.97
13713;DHT22;6928;50.546;7.120;2023-03-01T13:23:29;7.21;50.73
13713;DHT22;6928;50.546;7.120;2023-03-01T13:26:07;7.32;50.72
13713;DHT22;6928;50.546;7.120;2023-03-01T13:28:46;7.28;49.61
13713;DHT22;6928;50.546;7.120;2023-03-01T13:34:43;7.44;49.75
13713;DHT22;6928;50.546;7.120;2023-03-01T13:37:19;7.63;49.69
13713;DHT22;6928;50.546;7.120;2023-03-01T13:39:46;7.85;49.13
13713;DHT22;6928;50.546;7.120;2023-03-01T13:42:39;7.99;49.08
13713;DHT22;6928;50.546;7.120;2023-03-01T13:45:17;7.44;46.97
13713;DHT22;6928;50.546;7.120;2023-03-01T13:47:45;7.50;48.31
13713;DHT22;6928;50.546;7.120;2023-03-01T13:50:18;7.77;48.04
13713;DHT22;6928;50.546;7.120;2023-03-01T13:52:49;7.77;47.19
13713;DHT22;6928;50.546;7.120;2023-03-01T13:55:19;7.77;47.13
13713;DHT22;6928;50.546;7.120;2023-03-01T13:57:51;7.78;47.15
13713;DHT22;6928;50.546;7.120;2023-03-01T14:00:29;7.66;47.04
13713;DHT22;6928;50.546;7.120;2023-03-01T14:03:08;7.54;47.31
13713;DHT22;6928;50.546;7.120;2023-03-01T14:05:36;7.82;47.27
13713;DHT22;6928;50.546;7.120;2023-03-01T14:08:03;7.68;47.06
13713;DHT22;6928;50.546;7.120;2023-03-01T14:10:36;7.72;46.70
13713;DHT22;6928;50.546;7.120;2023-03-01T14:13:20;7.92;46.21
13713;DHT22;6928;50.546;7.120;2023-03-01T14:16:02;7.77;45.58
13713;DHT22;6928;50.546;7.120;2023-03-01T14:18:37;7.74;45.28
13713;DHT22;6928;50.546;7.120;2023-03-01T14:21:07;7.86;45.49
13713;DHT22;6928;50.546;7.120;2023-03-01T14:23:34;7.82;45.46
13713;DHT22;6928;50.546;7.120;2023-03-01T14:26:04;7.99;45.23
13713;DHT22;6928;50.546;7.120;2023-03-01T14:28:33;8.02;44.29
13713;DHT22;6928;50.546;7.120;2023-03-01T14:31:03;7.99;44.52
13713;DHT22;6928;50.546;7.120;2023-03-01T14:33:54;7.90;44.57
13713;DHT22;6928;50.546;7.120;2023-03-01T14:36:26;8.00;44.86
13713;DHT22;6928;50.546;7.120;2023-03-01T14:38:53;8.31;44.79
13713;DHT22;6928;50.546;7.120;2023-03-01T14:41:23;8.02;45.10
13713;DHT22;6928;50.546;7.120;2023-03-01T14:43:53;8.09;44.51
13713;DHT22;6928;50.546;7.120;2023-03-01T14:46:26;8.00;44.47
13713;DHT22;6928;50.546;7.120;2023-03-01T14:48:57;8.00;44.52
13713;DHT22;6928;50.546;7.120;2023-03-01T14:51:24;8.13;44.88
13713;DHT22;6928;50.546;7.120;2023-03-01T14:53:51;8.20;45.32
13713;DHT22;6928;50.546;7.120;2023-03-01T14:56:18;8.09;44.85
13713;DHT22;6928;50.546;7.120;2023-03-01T14:58:45;8.17;43.72
13713;DHT22;6928;50.546;7.120;2023-03-01T15:01:15;8.00;44.50
13713;DHT22;6928;50.546;7.120;2023-03-01T15:03:44;8.03;44.24
13713;DHT22;6928;50.546;7.120;2023-03-01T15:06:14;8.20;44.55
13713;DHT22;6928;50.546;7.120;2023-03-01T15:08:44;8.10;43.59
13713;DHT22;6928;50.546;7.120;2023-03-01T15:11:19;8.19;44.43
13713;DHT22;6928;50.546;7.120;2023-03-01T15:13:48;8.13;43.75
13713;DHT22;6928;50.546;7.120;2023-03-01T15:16:17;8.09;43.63
13713;DHT22;6928;50.546;7.120;2023-03-01T15:18:46;8.19;43.80
13713;DHT22;6928;50.546;7.120;2023-03-01T15:21:18;8.34;43.75
13713;DHT22;6928;50.546;7.120;2023-03-01T15:23:49;8.58;42.99
13713;DHT22;6928;50.546;7.120;2023-03-01T15:26:28;8.23;43.03
13713;DHT22;6928;50.546;7.120;2023-03-01T15:28:57;8.19;42.85
13713;DHT22;6928;50.546;7.120;2023-03-01T15:31:27;8.57;43.24
13713;DHT22;6928;50.546;7.120;2023-03-01T15:34:08;8.42;43.49
13713;DHT22;6928;50.546;7.120;2023-03-01T15:36:40;8.41;43.87
13713;DHT22;6928;50.546;7.120;2023-03-01T15:39:25;8.34;43.27
13713;DHT22;6928;50.546;7.120;2023-03-01T15:41:53;8.30;42.52
13713;DHT22;6928;50.546;7.120;2023-03-01T15:44:27;8.42;42.12
13713;DHT22;6928;50.546;7.120;2023-03-01T15:46:57;8.42;43.34
13713;DHT22;6928;50.546;7.120;2023-03-01T15:49:32;8.67;41.75
13713;DHT22;6928;50.546;7.120;2023-03-01T15:51:59;8.55;42.03
13713;DHT22;6928;50.546;7.120;2023-03-01T15:54:27;8.44;42.07
13713;DHT22;6928;50.546;7.120;2023-03-01T15:56:54;8.45;42.99
13713;DHT22;6928;50.546;7.120;2023-03-01T15:59:21;8.45;42.92
13713;DHT22;6928;50.546;7.120;2023-03-01T16:01:48;8.42;42.96
13713;DHT22;6928;50.546;7.120;2023-03-01T16:04:18;8.48;43.19
13713;DHT22;6928;50.546;7.120;2023-03-01T16:06:48;8.48;43.04
13713;DHT22;6928;50.546;7.120;2023-03-01T16:09:19;8.47;41.98
13713;DHT22;6928;50.546;7.120;2023-03-01T16:11:46;8.42;42.25
13713;DHT22;6928;50.546;7.120;2023-03-01T16:14:13;8.42;42.00